sensor_id;sensor_type;location;lat;lon;timestamp;P1;durP1;ratioP1;P2;durP2;ratioP2
48925;SDS011;39838;59.938;30.642;2023-07-30T00:02:29;8.75;;;5.05;;
48925;SDS011;39838;59.938;30.642;2023-07-30T00:04:58;10.57;;;5.63;;
48925;SDS011;39838;59.938;30.642;2023-07-30T00:07:25;7.68;;;5.00;;
48925;SDS011;39838;59.938;30.642;2023-07-30T00:09:52;8.55;;;4.97;;
48925;SDS011;39838;59.938;30.642;2023-07-30T00:12:19;7.72;;;5.10;;
48925;SDS011;39838;59.938;30.642;2023-07-30T00:14:46;7.38;;;4.55;;
48925;SDS011;39838;59.938;30.642;2023-07-30T00:17:14;11.32;;;4.82;;
48925;SDS011;39838;59.938;30.642;2023-07-30T00:19:41;7.20;;;4.65;;
48925;SDS011;39838;59.938;30.642;2023-07-30T00:22:09;8.25;;;4.47;;
48925;SDS011;39838;59.938;30.642;2023-07-30T00:24:36;8.13;;;4.65;;
48925;SDS011;39838;59.938;30.642;2023-07-30T00:27:04;7.10;;;4.60;;
48925;SDS011;39838;59.938;30.642;2023-07-30T00:29:32;8.00;;;4.68;;
48925;SDS011;39838;59.938;30.642;2023-07-30T00:31:59;6.25;;;4.55;;
48925;SDS011;39838;59.938;30.642;2023-07-30T00:34:26;7.32;;;4.90;;
48925;SDS011;39838;59.938;30.642;2023-07-30T00:36:53;9.60;;;5.05;;
48925;SDS011;39838;59.938;30.642;2023-07-30T00:39:22;7.97;;;5.20;;
48925;SDS011;39838;59.938;30.642;2023-07-30T00:41:49;7.90;;;5.45;;
48925;SDS011;39838;59.938;30.642;2023-07-30T00:44:16;8.93;;;5.50;;
48925;SDS011;39838;59.938;30.642;2023-07-30T00:46:43;8.05;;;5.05;;
48925;SDS011;39838;59.938;30.642;2023-07-30T00:49:10;6.93;;;5.10;;
48925;SDS011;39838;59.938;30.642;2023-07-30T00:51:38;7.30;;;4.75;;
48925;SDS011;39838;59.938;30.642;2023-07-30T00:54:07;8.63;;;4.68;;
48925;SDS011;39838;59.938;30.642;2023-07-30T00:56:36;6.80;;;4.47;;
48925;SDS011;39838;59.938;30.642;2023-07-30T00:59:03;8.85;;;4.72;;
48925;SDS011;39838;59.938;30.642;2023-07-30T01:01:31;9.13;;;4.53;;
48925;SDS011;39838;59.938;30.642;2023-07-30T01:04:02;8.57;;;4.43;;
48925;SDS011;39838;59.938;30.642;2023-07-30T01:06:29;7.40;;;4.45;;
48925;SDS011;39838;59.938;30.642;2023-07-30T01:08:57;11.35;;;5.07;;
48925;SDS011;39838;59.938;30.642;2023-07-30T01:11:24;10.13;;;5.13;;
48925;SDS011;39838;59.938;30.642;2023-07-30T01:13:53;7.20;;;4.68;;
48925;SDS011;39838;59.938;30.642;2023-07-30T01:16:21;9.63;;;4.90;;
48925;SDS011;39838;59.938;30.642;2023-07-30T01:18:49;8.07;;;5.15;;
48925;SDS011;39838;59.938;30.642;2023-07-30T01:21:18;9.57;;;5.15;;
48925;SDS011;39838;59.938;30.642;2023-07-30T01:23:45;8.63;;;5.40;;
48925;SDS011;39838;59.938;30.642;2023-07-30T01:26:12;8.85;;;5.32;;
48925;SDS011;39838;59.938;30.642;2023-07-30T01:28:46;9.90;;;5.05;;
48925;SDS011;39838;59.938;30.642;2023-07-30T01:31:18;8.60;;;5.35;;
48925;SDS011;39838;59.938;30.642;2023-07-30T01:33:48;9.00;;;5.10;;
48925;SDS011;39838;59.938;30.642;2023-07-30T01:36:22;8.15;;;5.65;;
48925;SDS011;39838;59.938;30.642;2023-07-30T01:38:49;9.48;;;6.03;;
48925;SDS011;39838;59.938;30.642;2023-07-30T01:41:17;12.43;;;6.70;;
48925;SDS011;39838;59.938;30.642;2023-07-30T01:43:45;15.07;;;8.10;;
48925;SDS011;39838;59.938;30.642;2023-07-30T01:46:12;13.68;;;8.50;;
48925;SDS011;39838;59.938;30.642;2023-07-30T01:48:39;16.85;;;8.95;;
48925;SDS011;39838;59.938;30.642;2023-07-30T01:51:06;15.68;;;8.45;;
48925;SDS011;39838;59.938;30.642;2023-07-30T01:53:35;18.27;;;8.68;;
48925;SDS011;39838;59.938;30.642;2023-07-30T01:56:02;14.15;;;8.55;;
48925;SDS011;39838;59.938;30.642;2023-07-30T01:58:29;15.25;;;7.97;;
48925;SDS011;39838;59.938;30.642;2023-07-30T02:00:56;12.63;;;7.88;;
48925;SDS011;39838;59.938;30.642;2023-07-30T02:03:24;14.48;;;7.65;;
48925;SDS011;39838;59.938;30.642;2023-07-30T02:05:51;12.75;;;7.47;;
48925;SDS011;39838;59.938;30.642;2023-07-30T02:08:18;10.48;;;6.40;;
48925;SDS011;39838;59.938;30.642;2023-07-30T02:10:55;14.52;;;6.53;;
48925;SDS011;39838;59.938;30.642;2023-07-30T02:13:23;11.73;;;6.38;;
48925;SDS011;39838;59.938;30.642;2023-07-30T02:15:50;10.38;;;6.10;;
48925;SDS011;39838;59.938;30.642;2023-07-30T02:18:18;10.40;;;5.35;;
48925;SDS011;39838;59.938;30.642;2023-07-30T02:20:51;9.57;;;5.40;;
48925;SDS011;39838;59.938;30.642;2023-07-30T02:23:19;9.90;;;4.78;;
48925;SDS011;39838;59.938;30.642;2023-07-30T02:25:46;10.23;;;4.70;;
48925;SDS011;39838;59.938;30.642;2023-07-30T02:28:14;9.23;;;5.13;;
48925;SDS011;39838;59.938;30.642;2023-07-30T02:30:42;6.47;;;4.30;;
48925;SDS011;39838;59.938;30.642;2023-07-30T02:33:09;9.02;;;4.35;;
48925;SDS011;39838;59.938;30.642;2023-07-30T02:35:36;7.53;;;4.03;;
48925;SDS011;39838;59.938;30.642;2023-07-30T02:38:03;8.18;;;3.90;;
48925;SDS011;39838;59.938;30.642;2023-07-30T02:40:30;5.90;;;3.38;;
48925;SDS011;39838;59.938;30.642;2023-07-30T02:42:57;5.35;;;3.50;;
48925;SDS011;39838;59.938;30.642;2023-07-30T02:45:26;13.95;;;3.40;;
48925;SDS011;39838;59.938;30.642;2023-07-30T02:47:53;7.38;;;3.80;;
48925;SDS011;39838;59.938;30.642;2023-07-30T02:50:21;6.97;;;3.70;;
48925;SDS011;39838;59.938;30.642;2023-07-30T02:52:48;5.95;;;3.50;;
48925;SDS011;39838;59.938;30.642;2023-07-30T02:55:15;5.13;;;3.38;;
48925;SDS011;39838;59.938;30.642;2023-07-30T02:57:42;8.90;;;3.28;;
48925;SDS011;39838;59.938;30.642;2023-07-30T03:00:10;8.77;;;3.67;;
48925;SDS011;39838;59.938;30.642;2023-07-30T03:02:39;6.15;;;3.33;;
48925;SDS011;39838;59.938;30.642;2023-07-30T03:05:07;6.10;;;3.17;;
48925;SDS011;39838;59.938;30.642;2023-07-30T03:07:34;7.45;;;3.40;;
48925;SDS011;39838;59.938;30.642;2023-07-30T03:10:02;7.22;;;3.38;;
48925;SDS011;39838;59.938;30.642;2023-07-30T03:12:30;7.72;;;3.40;;
48925;SDS011;39838;59.938;30.642;2023-07-30T03:14:58;8.95;;;3.50;;
48925;SDS011;39838;59.938;30.642;2023-07-30T03:17:25;7.38;;;3.80;;
48925;SDS011;39838;59.938;30.642;2023-07-30T03:19:53;8.55;;;3.42;;
48925;SDS011;39838;59.938;30.642;2023-07-30T03:22:20;7.72;;;3.75;;
48925;SDS011;39838;59.938;30.642;2023-07-30T03:24:48;6.88;;;3.42;;
48925;SDS011;39838;59.938;30.642;2023-07-30T03:27:15;5.88;;;3.45;;
48925;SDS011;39838;59.938;30.642;2023-07-30T03:29:43;5.50;;;3.60;;
48925;SDS011;39838;59.938;30.642;2023-07-30T03:32:10;5.65;;;3.20;;
48925;SDS011;39838;59.938;30.642;2023-07-30T03:34:37;5.70;;;3.47;;
48925;SDS011;39838;59.938;30.642;2023-07-30T03:37:06;5.07;;;3.10;;
48925;SDS011;39838;59.938;30.642;2023-07-30T03:39:33;6.13;;;3.03;;
48925;SDS011;39838;59.938;30.642;2023-07-30T03:42:00;8.02;;;3.33;;
48925;SDS011;39838;59.938;30.642;2023-07-30T03:44:27;7.30;;;3.70;;
48925;SDS011;39838;59.938;30.642;2023-07-30T03:46:55;8.27;;;3.45;;
48925;SDS011;39838;59.938;30.642;2023-07-30T03:49:22;7.97;;;3.42;;
48925;SDS011;39838;59.938;30.642;2023-07-30T03:51:49;4.85;;;3.17;;
48925;SDS011;39838;59.938;30.642;2023-07-30T03:54:17;6.40;;;3.10;;
48925;SDS011;39838;59.938;30.642;2023-07-30T03:56:45;10.02;;;3.45;;
48925;SDS011;39838;59.938;30.642;2023-07-30T03:59:12;8.32;;;3.28;;
48925;SDS011;39838;59.938;30.642;2023-07-30T04:01:39;6.53;;;3.08;;
48925;SDS011;39838;59.938;30.642;2023-07-30T04:04:06;5.82;;;2.92;;
48925;SDS011;39838;59.938;30.642;2023-07-30T04:06:33;5.22;;;2.92;;
48925;SDS011;39838;59.938;30.642;2023-07-30T04:09:01;7.50;;;3.17;;
48925;SDS011;39838;59.938;30.642;2023-07-30T04:11:30;7.22;;;3.17;;
48925;SDS011;39838;59.938;30.642;2023-07-30T04:13:57;9.85;;;3.10;;
48925;SDS011;39838;59.938;30.642;2023-07-30T04:16:24;5.30;;;3.22;;
48925;SDS011;39838;59.938;30.642;2023-07-30T04:18:51;7.35;;;3.10;;
48925;SDS011;39838;59.938;30.642;2023-07-30T04:21:18;6.93;;;3.22;;
48925;SDS011;39838;59.938;30.642;2023-07-30T04:23:46;7.03;;;3.72;;
48925;SDS011;39838;59.938;30.642;2023-07-30T04:26:13;7.00;;;2.92;;
48925;SDS011;39838;59.938;30.642;2023-07-30T04:28:42;10.63;;;3.40;;
48925;SDS011;39838;59.938;30.642;2023-07-30T04:31:09;10.10;;;3.60;;
48925;SDS011;39838;59.938;30.642;2023-07-30T04:33:36;5.05;;;3.40;;
48925;SDS011;39838;59.938;30.642;2023-07-30T04:36:03;5.57;;;3.70;;
48925;SDS011;39838;59.938;30.642;2023-07-30T04:38:32;7.55;;;3.58;;
48925;SDS011;39838;59.938;30.642;2023-07-30T04:40:59;8.80;;;3.40;;
48925;SDS011;39838;59.938;30.642;2023-07-30T04:43:26;7.00;;;3.38;;
48925;SDS011;39838;59.938;30.642;2023-07-30T04:45:55;5.90;;;3.15;;
48925;SDS011;39838;59.938;30.642;2023-07-30T04:48:22;8.55;;;3.50;;
48925;SDS011;39838;59.938;30.642;2023-07-30T04:50:50;5.70;;;3.42;;
48925;SDS011;39838;59.938;30.642;2023-07-30T04:53:17;4.90;;;3.08;;
48925;SDS011;39838;59.938;30.642;2023-07-30T04:55:45;7.88;;;3.38;;
48925;SDS011;39838;59.938;30.642;2023-07-30T04:58:13;8.65;;;3.60;;
48925;SDS011;39838;59.938;30.642;2023-07-30T05:00:40;7.05;;;3.40;;
48925;SDS011;39838;59.938;30.642;2023-07-30T05:03:09;6.50;;;3.10;;
48925;SDS011;39838;59.938;30.642;2023-07-30T05:05:36;5.57;;;3.22;;
48925;SDS011;39838;59.938;30.642;2023-07-30T05:08:03;8.00;;;3.33;;
48925;SDS011;39838;59.938;30.642;2023-07-30T05:10:30;5.45;;;3.00;;
48925;SDS011;39838;59.938;30.642;2023-07-30T05:12:58;6.45;;;3.20;;
48925;SDS011;39838;59.938;30.642;2023-07-30T05:15:25;7.05;;;3.30;;
48925;SDS011;39838;59.938;30.642;2023-07-30T05:17:52;5.43;;;3.28;;
48925;SDS011;39838;59.938;30.642;2023-07-30T05:20:21;15.60;;;3.53;;
48925;SDS011;39838;59.938;30.642;2023-07-30T05:22:48;8.45;;;3.47;;
48925;SDS011;39838;59.938;30.642;2023-07-30T05:25:15;7.07;;;3.00;;
48925;SDS011;39838;59.938;30.642;2023-07-30T05:27:43;6.43;;;3.40;;
48925;SDS011;39838;59.938;30.642;2023-07-30T05:30:10;10.75;;;3.33;;
48925;SDS011;39838;59.938;30.642;2023-07-30T05:32:37;7.60;;;3.40;;
48925;SDS011;39838;59.938;30.642;2023-07-30T05:35:05;6.07;;;2.97;;
48925;SDS011;39838;59.938;30.642;2023-07-30T05:37:34;6.43;;;3.72;;
48925;SDS011;39838;59.938;30.642;2023-07-30T05:40:02;9.07;;;3.60;;
48925;SDS011;39838;59.938;30.642;2023-07-30T05:42:30;5.43;;;3.17;;
48925;SDS011;39838;59.938;30.642;2023-07-30T05:44:57;5.40;;;3.40;;
48925;SDS011;39838;59.938;30.642;2023-07-30T05:47:24;7.38;;;3.40;;
48925;SDS011;39838;59.938;30.642;2023-07-30T05:49:52;7.28;;;3.60;;
48925;SDS011;39838;59.938;30.642;2023-07-30T05:52:19;6.35;;;3.60;;
48925;SDS011;39838;59.938;30.642;2023-07-30T05:54:47;6.38;;;3.90;;
48925;SDS011;39838;59.938;30.642;2023-07-30T05:57:14;7.45;;;3.65;;
48925;SDS011;39838;59.938;30.642;2023-07-30T05:59:42;8.40;;;3.50;;
48925;SDS011;39838;59.938;30.642;2023-07-30T06:02:09;6.78;;;3.60;;
48925;SDS011;39838;59.938;30.642;2023-07-30T06:04:36;7.10;;;3.40;;
48925;SDS011;39838;59.938;30.642;2023-07-30T06:07:03;6.90;;;3.47;;
48925;SDS011;39838;59.938;30.642;2023-07-30T06:09:31;6.35;;;3.17;;
48925;SDS011;39838;59.938;30.642;2023-07-30T06:11:59;6.38;;;3.28;;
48925;SDS011;39838;59.938;30.642;2023-07-30T06:14:27;6.40;;;3.55;;
48925;SDS011;39838;59.938;30.642;2023-07-30T06:16:54;9.02;;;3.67;;
48925;SDS011;39838;59.938;30.642;2023-07-30T06:19:21;5.50;;;3.28;;
48925;SDS011;39838;59.938;30.642;2023-07-30T06:21:48;5.65;;;3.42;;
48925;SDS011;39838;59.938;30.642;2023-07-30T06:24:16;6.30;;;3.45;;
48925;SDS011;39838;59.938;30.642;2023-07-30T06:26:43;5.15;;;3.50;;
48925;SDS011;39838;59.938;30.642;2023-07-30T06:29:12;5.82;;;3.53;;
48925;SDS011;39838;59.938;30.642;2023-07-30T06:31:39;5.80;;;3.38;;
48925;SDS011;39838;59.938;30.642;2023-07-30T06:34:06;8.48;;;3.63;;
48925;SDS011;39838;59.938;30.642;2023-07-30T06:36:33;6.40;;;3.50;;
48925;SDS011;39838;59.938;30.642;2023-07-30T06:39:01;6.97;;;3.35;;
48925;SDS011;39838;59.938;30.642;2023-07-30T06:41:28;6.57;;;3.40;;
48925;SDS011;39838;59.938;30.642;2023-07-30T06:43:55;6.20;;;3.30;;
48925;SDS011;39838;59.938;30.642;2023-07-30T06:46:24;6.75;;;3.20;;
48925;SDS011;39838;59.938;30.642;2023-07-30T06:48:51;6.78;;;3.50;;
48925;SDS011;39838;59.938;30.642;2023-07-30T06:51:18;6.70;;;3.47;;
48925;SDS011;39838;59.938;30.642;2023-07-30T06:53:46;7.85;;;3.33;;
48925;SDS011;39838;59.938;30.642;2023-07-30T06:56:13;7.13;;;3.60;;
48925;SDS011;39838;59.938;30.642;2023-07-30T06:58:40;4.75;;;3.17;;
48925;SDS011;39838;59.938;30.642;2023-07-30T07:01:07;5.03;;;3.20;;
48925;SDS011;39838;59.938;30.642;2023-07-30T07:03:36;5.63;;;3.38;;
48925;SDS011;39838;59.938;30.642;2023-07-30T07:06:04;6.90;;;3.20;;
48925;SDS011;39838;59.938;30.642;2023-07-30T07:08:31;5.30;;;3.38;;
48925;SDS011;39838;59.938;30.642;2023-07-30T07:10:59;6.30;;;3.67;;
48925;SDS011;39838;59.938;30.642;2023-07-30T07:13:26;5.30;;;3.58;;
48925;SDS011;39838;59.938;30.642;2023-07-30T07:15:54;6.90;;;3.40;;
48925;SDS011;39838;59.938;30.642;2023-07-30T07:18:21;7.80;;;3.70;;
48925;SDS011;39838;59.938;30.642;2023-07-30T07:20:49;7.10;;;3.58;;
48925;SDS011;39838;59.938;30.642;2023-07-30T07:23:16;5.40;;;3.13;;
48925;SDS011;39838;59.938;30.642;2023-07-30T07:25:44;7.43;;;3.40;;
48925;SDS011;39838;59.938;30.642;2023-07-30T07:28:11;6.93;;;3.63;;
48925;SDS011;39838;59.938;30.642;2023-07-30T07:30:38;6.25;;;3.50;;
48925;SDS011;39838;59.938;30.642;2023-07-30T07:33:05;7.07;;;3.85;;
48925;SDS011;39838;59.938;30.642;2023-07-30T07:35:34;6.07;;;3.50;;
48925;SDS011;39838;59.938;30.642;2023-07-30T07:38:03;7.18;;;3.55;;
48925;SDS011;39838;59.938;30.642;2023-07-30T07:40:30;7.90;;;3.65;;
48925;SDS011;39838;59.938;30.642;2023-07-30T07:42:57;6.85;;;3.58;;
48925;SDS011;39838;59.938;30.642;2023-07-30T07:45:24;5.85;;;3.60;;
48925;SDS011;39838;59.938;30.642;2023-07-30T07:47:51;7.53;;;3.53;;
48925;SDS011;39838;59.938;30.642;2023-07-30T07:50:19;6.57;;;3.45;;
48925;SDS011;39838;59.938;30.642;2023-07-30T07:52:46;6.53;;;3.85;;
48925;SDS011;39838;59.938;30.642;2023-07-30T07:55:14;8.35;;;3.45;;
48925;SDS011;39838;59.938;30.642;2023-07-30T07:57:43;8.65;;;3.65;;
48925;SDS011;39838;59.938;30.642;2023-07-30T08:00:10;9.05;;;3.83;;
48925;SDS011;39838;59.938;30.642;2023-07-30T08:02:39;7.03;;;3.47;;
48925;SDS011;39838;59.938;30.642;2023-07-30T08:05:06;6.70;;;3.65;;
48925;SDS011;39838;59.938;30.642;2023-07-30T08:07:34;5.35;;;3.45;;
48925;SDS011;39838;59.938;30.642;2023-07-30T08:10:01;4.78;;;3.25;;
48925;SDS011;39838;59.938;30.642;2023-07-30T08:12:32;6.60;;;3.20;;
48925;SDS011;39838;59.938;30.642;2023-07-30T08:14:59;4.97;;;3.00;;
48925;SDS011;39838;59.938;30.642;2023-07-30T08:17:30;8.15;;;3.28;;
48925;SDS011;39838;59.938;30.642;2023-07-30T08:19:57;7.90;;;3.30;;
48925;SDS011;39838;59.938;30.642;2023-07-30T08:22:24;5.13;;;3.15;;
48925;SDS011;39838;59.938;30.642;2023-07-30T08:24:52;5.68;;;3.63;;
48925;SDS011;39838;59.938;30.642;2023-07-30T08:27:19;5.38;;;3.03;;
48925;SDS011;39838;59.938;30.642;2023-07-30T08:29:47;7.18;;;3.40;;
48925;SDS011;39838;59.938;30.642;2023-07-30T08:32:14;6.15;;;3.17;;
48925;SDS011;39838;59.938;30.642;2023-07-30T08:34:42;6.60;;;3.22;;
48925;SDS011;39838;59.938;30.642;2023-07-30T08:37:09;5.38;;;3.03;;
48925;SDS011;39838;59.938;30.642;2023-07-30T08:39:36;3.72;;;2.70;;
48925;SDS011;39838;59.938;30.642;2023-07-30T08:42:03;4.53;;;2.90;;
48925;SDS011;39838;59.938;30.642;2023-07-30T08:44:31;6.40;;;3.10;;
48925;SDS011;39838;59.938;30.642;2023-07-30T08:47:00;5.90;;;2.88;;
48925;SDS011;39838;59.938;30.642;2023-07-30T08:49:27;4.70;;;3.10;;
48925;SDS011;39838;59.938;30.642;2023-07-30T08:51:58;6.20;;;3.30;;
48925;SDS011;39838;59.938;30.642;2023-07-30T08:54:27;5.18;;;3.13;;
48925;SDS011;39838;59.938;30.642;2023-07-30T08:56:57;5.88;;;3.30;;
48925;SDS011;39838;59.938;30.642;2023-07-30T08:59:25;7.95;;;3.38;;
48925;SDS011;39838;59.938;30.642;2023-07-30T09:01:57;4.70;;;2.90;;
48925;SDS011;39838;59.938;30.642;2023-07-30T09:04:27;6.38;;;3.20;;
48925;SDS011;39838;59.938;30.642;2023-07-30T09:07:00;5.35;;;3.10;;
48925;SDS011;39838;59.938;30.642;2023-07-30T09:09:27;4.63;;;2.92;;
48925;SDS011;39838;59.938;30.642;2023-07-30T09:11:55;7.32;;;3.25;;
48925;SDS011;39838;59.938;30.642;2023-07-30T09:14:22;5.78;;;2.83;;
48925;SDS011;39838;59.938;30.642;2023-07-30T09:16:51;7.75;;;3.40;;
48925;SDS011;39838;59.938;30.642;2023-07-30T09:19:24;5.60;;;3.10;;
48925;SDS011;39838;59.938;30.642;2023-07-30T09:21:52;4.72;;;3.10;;
48925;SDS011;39838;59.938;30.642;2023-07-30T09:24:20;7.03;;;3.45;;
48925;SDS011;39838;59.938;30.642;2023-07-30T09:26:48;4.75;;;3.20;;
48925;SDS011;39838;59.938;30.642;2023-07-30T09:29:15;7.05;;;3.10;;
48925;SDS011;39838;59.938;30.642;2023-07-30T09:31:43;4.68;;;3.03;;
48925;SDS011;39838;59.938;30.642;2023-07-30T09:34:16;6.47;;;2.60;;
48925;SDS011;39838;59.938;30.642;2023-07-30T09:36:45;5.72;;;3.00;;
48925;SDS011;39838;59.938;30.642;2023-07-30T09:39:16;3.72;;;2.70;;
48925;SDS011;39838;59.938;30.642;2023-07-30T09:41:44;6.22;;;3.20;;
48925;SDS011;39838;59.938;30.642;2023-07-30T09:44:11;5.47;;;2.78;;
48925;SDS011;39838;59.938;30.642;2023-07-30T09:46:43;5.40;;;2.65;;
48925;SDS011;39838;59.938;30.642;2023-07-30T09:49:11;4.18;;;2.85;;
48925;SDS011;39838;59.938;30.642;2023-07-30T09:51:39;6.68;;;3.17;;
48925;SDS011;39838;59.938;30.642;2023-07-30T09:54:08;4.28;;;3.03;;
48925;SDS011;39838;59.938;30.642;2023-07-30T09:56:36;4.95;;;3.00;;
48925;SDS011;39838;59.938;30.642;2023-07-30T09:59:04;5.47;;;2.97;;
48925;SDS011;39838;59.938;30.642;2023-07-30T10:01:32;4.28;;;2.80;;
48925;SDS011;39838;59.938;30.642;2023-07-30T10:04:06;4.95;;;2.92;;
48925;SDS011;39838;59.938;30.642;2023-07-30T10:06:35;5.53;;;2.75;;
48925;SDS011;39838;59.938;30.642;2023-07-30T10:09:07;5.25;;;2.90;;
48925;SDS011;39838;59.938;30.642;2023-07-30T10:11:37;4.90;;;2.80;;
48925;SDS011;39838;59.938;30.642;2023-07-30T10:14:05;4.88;;;2.55;;
48925;SDS011;39838;59.938;30.642;2023-07-30T10:16:33;4.32;;;3.00;;
48925;SDS011;39838;59.938;30.642;2023-07-30T10:19:00;6.50;;;2.85;;
48925;SDS011;39838;59.938;30.642;2023-07-30T10:21:28;5.18;;;2.88;;
48925;SDS011;39838;59.938;30.642;2023-07-30T10:23:59;5.80;;;2.92;;
48925;SDS011;39838;59.938;30.642;2023-07-30T10:26:29;6.88;;;3.08;;
48925;SDS011;39838;59.938;30.642;2023-07-30T10:29:13;4.40;;;2.67;;
48925;SDS011;39838;59.938;30.642;2023-07-30T10:31:43;3.97;;;2.80;;
48925;SDS011;39838;59.938;30.642;2023-07-30T10:34:14;6.28;;;2.85;;
48925;SDS011;39838;59.938;30.642;2023-07-30T10:36:42;5.57;;;2.70;;
48925;SDS011;39838;59.938;30.642;2023-07-30T10:39:14;4.40;;;2.50;;
48925;SDS011;39838;59.938;30.642;2023-07-30T10:41:48;3.30;;;2.50;;
48925;SDS011;39838;59.938;30.642;2023-07-30T10:44:17;4.15;;;2.63;;
48925;SDS011;39838;59.938;30.642;2023-07-30T10:46:46;5.78;;;2.80;;
48925;SDS011;39838;59.938;30.642;2023-07-30T10:49:13;6.38;;;2.50;;
48925;SDS011;39838;59.938;30.642;2023-07-30T10:51:40;5.25;;;2.50;;
48925;SDS011;39838;59.938;30.642;2023-07-30T10:54:07;3.72;;;2.50;;
48925;SDS011;39838;59.938;30.642;2023-07-30T10:56:35;5.20;;;2.90;;
48925;SDS011;39838;59.938;30.642;2023-07-30T10:59:04;4.15;;;2.53;;
48925;SDS011;39838;59.938;30.642;2023-07-30T11:01:36;7.15;;;2.85;;
48925;SDS011;39838;59.938;30.642;2023-07-30T11:04:08;3.80;;;2.50;;
48925;SDS011;39838;59.938;30.642;2023-07-30T11:06:37;5.97;;;2.80;;
48925;SDS011;39838;59.938;30.642;2023-07-30T11:09:05;5.57;;;2.58;;
48925;SDS011;39838;59.938;30.642;2023-07-30T11:11:32;3.42;;;2.55;;
48925;SDS011;39838;59.938;30.642;2023-07-30T11:14:00;6.13;;;2.70;;
48925;SDS011;39838;59.938;30.642;2023-07-30T11:16:30;3.95;;;2.80;;
48925;SDS011;39838;59.938;30.642;2023-07-30T11:18:58;6.28;;;2.90;;
48925;SDS011;39838;59.938;30.642;2023-07-30T11:21:26;7.15;;;2.58;;
48925;SDS011;39838;59.938;30.642;2023-07-30T11:23:53;4.38;;;2.67;;
48925;SDS011;39838;59.938;30.642;2023-07-30T11:26:20;5.93;;;2.83;;
48925;SDS011;39838;59.938;30.642;2023-07-30T11:28:47;6.05;;;3.00;;
48925;SDS011;39838;59.938;30.642;2023-07-30T11:31:15;6.00;;;2.70;;
48925;SDS011;39838;59.938;30.642;2023-07-30T11:33:46;4.32;;;2.78;;
48925;SDS011;39838;59.938;30.642;2023-07-30T11:36:15;7.25;;;2.97;;
48925;SDS011;39838;59.938;30.642;2023-07-30T11:38:43;4.90;;;2.63;;
48925;SDS011;39838;59.938;30.642;2023-07-30T11:41:11;5.60;;;2.92;;
48925;SDS011;39838;59.938;30.642;2023-07-30T11:43:41;3.35;;;2.50;;
48925;SDS011;39838;59.938;30.642;2023-07-30T11:46:12;3.97;;;2.50;;
48925;SDS011;39838;59.938;30.642;2023-07-30T11:48:41;5.18;;;2.60;;
48925;SDS011;39838;59.938;30.642;2023-07-30T11:51:21;4.30;;;2.90;;
48925;SDS011;39838;59.938;30.642;2023-07-30T11:53:50;4.43;;;2.70;;
48925;SDS011;39838;59.938;30.642;2023-07-30T11:56:22;4.55;;;2.70;;
48925;SDS011;39838;59.938;30.642;2023-07-30T11:58:50;4.90;;;2.85;;
48925;SDS011;39838;59.938;30.642;2023-07-30T12:01:19;4.38;;;2.80;;
48925;SDS011;39838;59.938;30.642;2023-07-30T12:03:46;5.40;;;2.80;;
48925;SDS011;39838;59.938;30.642;2023-07-30T12:06:13;5.30;;;2.90;;
48925;SDS011;39838;59.938;30.642;2023-07-30T12:08:42;5.43;;;2.80;;
48925;SDS011;39838;59.938;30.642;2023-07-30T12:11:09;8.40;;;2.95;;
48925;SDS011;39838;59.938;30.642;2023-07-30T12:13:46;3.75;;;2.72;;
48925;SDS011;39838;59.938;30.642;2023-07-30T12:16:15;6.22;;;2.97;;
48925;SDS011;39838;59.938;30.642;2023-07-30T12:18:42;4.50;;;2.70;;
48925;SDS011;39838;59.938;30.642;2023-07-30T12:21:10;5.50;;;2.90;;
48925;SDS011;39838;59.938;30.642;2023-07-30T12:23:37;4.43;;;2.72;;
48925;SDS011;39838;59.938;30.642;2023-07-30T12:26:06;2.92;;;2.17;;
48925;SDS011;39838;59.938;30.642;2023-07-30T12:28:33;5.15;;;2.65;;
48925;SDS011;39838;59.938;30.642;2023-07-30T12:31:01;4.40;;;2.60;;
48925;SDS011;39838;59.938;30.642;2023-07-30T12:33:28;6.75;;;2.60;;
48925;SDS011;39838;59.938;30.642;2023-07-30T12:35:55;6.35;;;2.67;;
48925;SDS011;39838;59.938;30.642;2023-07-30T12:38:22;3.92;;;2.30;;
48925;SDS011;39838;59.938;30.642;2023-07-30T12:40:49;4.78;;;2.45;;
48925;SDS011;39838;59.938;30.642;2023-07-30T12:43:18;5.47;;;2.33;;
48925;SDS011;39838;59.938;30.642;2023-07-30T12:45:46;5.68;;;2.80;;
48925;SDS011;39838;59.938;30.642;2023-07-30T12:48:14;5.15;;;2.45;;
48925;SDS011;39838;59.938;30.642;2023-07-30T12:50:41;5.57;;;2.60;;
48925;SDS011;39838;59.938;30.642;2023-07-30T12:53:08;4.22;;;2.35;;
48925;SDS011;39838;59.938;30.642;2023-07-30T12:55:36;3.05;;;2.50;;
48925;SDS011;39838;59.938;30.642;2023-07-30T12:58:03;6.40;;;2.53;;
48925;SDS011;39838;59.938;30.642;2023-07-30T13:00:33;4.22;;;2.65;;
48925;SDS011;39838;59.938;30.642;2023-07-30T13:03:00;3.92;;;2.30;;
48925;SDS011;39838;59.938;30.642;2023-07-30T13:05:28;4.32;;;2.40;;
48925;SDS011;39838;59.938;30.642;2023-07-30T13:07:55;5.28;;;2.58;;
48925;SDS011;39838;59.938;30.642;2023-07-30T13:10:23;2.83;;;2.30;;
48925;SDS011;39838;59.938;30.642;2023-07-30T13:12:50;3.30;;;2.35;;
48925;SDS011;39838;59.938;30.642;2023-07-30T13:15:17;3.00;;;2.20;;
48925;SDS011;39838;59.938;30.642;2023-07-30T13:17:46;2.35;;;2.03;;
48925;SDS011;39838;59.938;30.642;2023-07-30T13:20:13;5.78;;;2.55;;
48925;SDS011;39838;59.938;30.642;2023-07-30T13:22:40;3.20;;;2.38;;
48925;SDS011;39838;59.938;30.642;2023-07-30T13:25:08;5.50;;;2.55;;
48925;SDS011;39838;59.938;30.642;2023-07-30T13:27:35;3.72;;;2.20;;
48925;SDS011;39838;59.938;30.642;2023-07-30T13:30:02;2.72;;;2.08;;
48925;SDS011;39838;59.938;30.642;2023-07-30T13:32:31;3.00;;;2.10;;
48925;SDS011;39838;59.938;30.642;2023-07-30T13:35:00;2.85;;;2.20;;
48925;SDS011;39838;59.938;30.642;2023-07-30T13:37:29;7.00;;;2.33;;
48925;SDS011;39838;59.938;30.642;2023-07-30T13:39:57;3.88;;;2.40;;
48925;SDS011;39838;59.938;30.642;2023-07-30T13:42:24;3.67;;;2.47;;
48925;SDS011;39838;59.938;30.642;2023-07-30T13:44:51;2.60;;;2.25;;
48925;SDS011;39838;59.938;30.642;2023-07-30T13:47:18;4.70;;;2.30;;
48925;SDS011;39838;59.938;30.642;2023-07-30T13:49:46;6.65;;;2.33;;
48925;SDS011;39838;59.938;30.642;2023-07-30T13:52:14;3.05;;;2.00;;
48925;SDS011;39838;59.938;30.642;2023-07-30T13:54:42;4.18;;;2.60;;
48925;SDS011;39838;59.938;30.642;2023-07-30T13:57:10;4.93;;;2.40;;
48925;SDS011;39838;59.938;30.642;2023-07-30T13:59:38;7.07;;;2.20;;
48925;SDS011;39838;59.938;30.642;2023-07-30T14:02:09;3.53;;;1.95;;
48925;SDS011;39838;59.938;30.642;2023-07-30T14:04:37;4.05;;;2.42;;
48925;SDS011;39838;59.938;30.642;2023-07-30T14:07:04;3.90;;;2.50;;
48925;SDS011;39838;59.938;30.642;2023-07-30T14:09:33;3.92;;;2.17;;
48925;SDS011;39838;59.938;30.642;2023-07-30T14:12:02;4.15;;;2.33;;
48925;SDS011;39838;59.938;30.642;2023-07-30T14:14:30;5.55;;;2.40;;
48925;SDS011;39838;59.938;30.642;2023-07-30T14:16:57;4.55;;;2.03;;
48925;SDS011;39838;59.938;30.642;2023-07-30T14:19:25;5.70;;;2.50;;
48925;SDS011;39838;59.938;30.642;2023-07-30T14:21:54;2.80;;;2.30;;
48925;SDS011;39838;59.938;30.642;2023-07-30T14:24:21;3.58;;;2.33;;
48925;SDS011;39838;59.938;30.642;2023-07-30T14:26:50;2.83;;;2.20;;
48925;SDS011;39838;59.938;30.642;2023-07-30T14:29:17;3.53;;;2.30;;
48925;SDS011;39838;59.938;30.642;2023-07-30T14:31:44;2.72;;;2.20;;
48925;SDS011;39838;59.938;30.642;2023-07-30T14:34:11;4.38;;;2.47;;
48925;SDS011;39838;59.938;30.642;2023-07-30T14:36:39;3.35;;;2.03;;
48925;SDS011;39838;59.938;30.642;2023-07-30T14:39:06;4.97;;;2.20;;